createdAt,value
2022-10-29T00:02:13.522Z,23.40
2022-10-29T00:07:34.041Z,22.30
2022-10-29T00:12:37.228Z,25.80
2022-10-29T00:17:40.416Z,21.90
2022-10-29T00:22:43.583Z,23.20
2022-10-29T00:27:46.646Z,24.00
2022-10-29T00:32:50.044Z,22.30
2022-10-29T00:38:10.861Z,24.90
2022-10-29T00:43:16.409Z,26.20
2022-10-29T00:48:21.176Z,22.90
2022-10-29T00:53:48.251Z,22.90
2022-10-29T00:59:10.310Z,21.30
2022-10-29T01:04:14.235Z,24.20
2022-10-29T01:09:17.298Z,23.50
2022-10-29T01:14:35.595Z,28.90
2022-10-29T01:20:08.443Z,22.80
2022-10-29T01:25:36.653Z,24.40
2022-10-29T01:31:00.908Z,23.30
2022-10-29T01:36:32.920Z,28.60
2022-10-29T01:41:51.047Z,27.90
2022-10-29T01:47:19.482Z,27.10
2022-10-29T01:52:41.729Z,24.10
2022-10-29T01:57:44.837Z,29.00
2022-10-29T02:03:00.628Z,28.30
2022-10-29T02:08:11.832Z,24.60
2022-10-29T02:13:17.969Z,26.80
2022-10-29T02:18:47.369Z,24.20
2022-10-29T02:23:51.136Z,25.50
2022-10-29T02:29:11.832Z,26.00
2022-10-29T02:34:15.003Z,23.70
2022-10-29T02:39:36.407Z,24.20
2022-10-29T02:44:57.053Z,23.50
2022-10-29T02:50:17.986Z,23.70
2022-10-29T02:55:21.135Z,25.90
2022-10-29T03:00:24.281Z,26.20
2022-10-29T03:05:27.419Z,26.30
2022-10-29T03:10:30.494Z,23.30
2022-10-29T03:15:33.631Z,24.00
2022-10-29T03:20:36.798Z,23.80
2022-10-29T03:25:57.759Z,24.00
2022-10-29T03:31:00.857Z,22.70
2022-10-29T03:36:07.133Z,24.00
2022-10-29T03:41:11.125Z,26.30
2022-10-29T03:46:14.304Z,24.40
2022-10-29T03:51:17.618Z,21.50
2022-10-29T03:56:20.693Z,23.20
2022-10-29T04:01:24.183Z,21.70
2022-10-29T04:06:27.418Z,22.70
2022-10-29T04:11:48.392Z,21.80
2022-10-29T04:16:51.485Z,22.80
2022-10-29T04:32:40.864Z,23.90
2022-10-29T04:38:09.207Z,22.60
2022-10-29T04:43:15.545Z,20.20
2022-10-29T04:48:36.417Z,21.40
2022-10-29T04:53:40.568Z,20.70
2022-10-29T04:58:43.809Z,22.40
2022-10-29T05:03:46.962Z,20.80
2022-10-29T05:08:50.061Z,23.60
2022-10-29T05:13:53.223Z,25.30
2022-10-29T05:18:56.373Z,22.90
2022-10-29T05:23:59.517Z,23.90
2022-10-29T05:29:02.878Z,30.10
2022-10-29T05:34:24.193Z,31.60
2022-10-29T05:39:27.407Z,33.20
2022-10-29T05:44:30.574Z,33.40
2022-10-29T05:49:33.764Z,31.30
2022-10-29T05:54:36.877Z,27.70
2022-10-29T05:59:40.053Z,22.80
2022-10-29T06:05:00.857Z,22.40
2022-10-29T06:10:04.422Z,18.80
2022-10-29T06:15:08.251Z,19.50
2022-10-29T06:20:14.082Z,18.10
2022-10-29T06:25:17.547Z,24.20
2022-10-29T06:30:20.714Z,25.20
2022-10-29T06:35:24.530Z,19.90
2022-10-29T06:40:27.691Z,16.90
2022-10-29T06:45:31.907Z,19.80
2022-10-29T06:50:35.414Z,15.40
2022-10-29T06:55:39.194Z,20.10
2022-10-29T07:01:03.316Z,20.00
2022-10-29T07:06:06.980Z,32.50
2022-10-29T07:11:10.141Z,23.40
2022-10-29T07:16:13.666Z,18.90
2022-10-29T07:21:16.962Z,23.70
2022-10-29T07:26:20.198Z,22.10
2022-10-29T07:31:25.150Z,17.40
2022-10-29T07:36:31.503Z,24.60
2022-10-29T07:41:34.812Z,23.70
2022-10-29T07:46:38.039Z,22.20
2022-10-29T07:51:42.603Z,27.60
2022-10-29T07:56:47.753Z,26.60
2022-10-29T08:01:51.222Z,27.00
2022-10-29T08:06:54.441Z,28.50
2022-10-29T08:11:57.510Z,24.40
2022-10-29T08:17:00.774Z,30.50
2022-10-29T08:22:04.550Z,26.80
2022-10-29T08:27:07.645Z,25.90
2022-10-29T08:32:10.746Z,29.10
2022-10-29T08:37:14.060Z,27.10
2022-10-29T08:42:32.218Z,27.80
2022-10-29T08:48:03.981Z,28.90
2022-10-29T08:53:23.411Z,24.50
2022-10-29T08:58:55.724Z,24.30
2022-10-29T09:03:59.182Z,25.30
2022-10-29T09:09:22.737Z,26.40
2022-10-29T09:14:54.629Z,23.90
2022-10-29T09:20:06.761Z,20.10
2022-10-29T09:25:29.232Z,22.10
2022-10-29T09:30:41.242Z,21.50
2022-10-29T09:35:49.107Z,35.60
2022-10-29T09:40:52.445Z,13.70
2022-10-29T09:46:12.587Z,10.20
2022-10-29T09:51:39.030Z,8.30
2022-10-29T09:57:02.331Z,10.20
2022-10-29T10:02:37.642Z,8.80
2022-10-29T10:08:08.958Z,10.60
2022-10-29T10:13:17.223Z,8.50
2022-10-29T10:24:29.684Z,10.70
2022-10-29T10:30:16.288Z,7.10
2022-10-29T10:35:31.083Z,6.10
2022-10-29T10:40:57.754Z,7.10
2022-10-29T10:46:12.714Z,7.90
2022-10-29T10:51:25.166Z,6.50
2022-10-29T10:56:28.342Z,8.20
2022-10-29T11:01:43.706Z,5.90
2022-10-29T11:06:52.953Z,7.20
2022-10-29T11:12:04.768Z,6.20
2022-10-29T11:17:51.333Z,7.00
2022-10-29T11:23:12.241Z,5.20
2022-10-29T11:28:34.051Z,5.90
2022-10-29T11:33:46.096Z,7.50
2022-10-29T11:39:20.848Z,8.20
2022-10-29T11:44:25.661Z,9.20
2022-10-29T11:49:47.454Z,9.00
2022-10-29T11:55:19.465Z,7.60
2022-10-29T12:00:24.965Z,6.70
2022-10-29T12:05:31.458Z,7.20
2022-10-29T12:11:07.015Z,8.40
2022-10-29T12:16:37.757Z,6.60
2022-10-29T12:21:43.585Z,6.70
2022-10-29T12:26:55.991Z,6.20
2022-10-29T12:32:15.701Z,4.30
2022-10-29T12:37:42.888Z,5.80
2022-10-29T12:42:47.869Z,4.00
2022-10-29T12:48:34.656Z,7.40
2022-10-29T12:53:56.741Z,5.80
2022-10-29T12:59:23.927Z,4.80
2022-10-29T13:04:32.583Z,6.30
2022-10-29T13:09:37.241Z,6.80
2022-10-29T13:14:52.237Z,7.50
2022-10-29T13:20:00.362Z,6.90
2022-10-29T13:25:36.537Z,4.30
2022-10-29T13:30:42.305Z,6.60
2022-10-29T13:35:52.349Z,6.80
2022-10-29T13:41:16.589Z,7.00
2022-10-29T13:46:25.827Z,7.30
2022-10-29T13:51:38.413Z,5.90
2022-10-29T13:57:05.613Z,6.10
2022-10-29T14:02:29.996Z,6.60
2022-10-29T14:08:04.290Z,6.30
2022-10-29T14:13:34.422Z,5.40
2022-10-29T14:18:46.345Z,6.00
2022-10-29T14:24:10.134Z,5.60
2022-10-29T14:29:24.680Z,7.00
2022-10-29T14:34:28.639Z,8.70
2022-10-29T14:39:57.914Z,6.70
2022-10-29T14:45:06.052Z,5.60
2022-10-29T14:50:29.479Z,9.30
2022-10-29T14:55:40.413Z,9.50
2022-10-29T15:01:06.052Z,8.00
2022-10-29T15:06:15.373Z,7.70
2022-10-29T15:11:57.936Z,9.60
2022-10-29T15:17:18.964Z,10.50
2022-10-29T15:22:29.821Z,10.00
2022-10-29T15:27:36.535Z,7.00
2022-10-29T15:32:39.706Z,8.90
2022-10-29T15:37:46.049Z,11.60
2022-10-29T15:42:52.611Z,12.10
2022-10-29T15:48:40.089Z,10.20
2022-10-29T15:53:43.515Z,8.10
2022-10-29T15:58:47.344Z,9.80
2022-10-29T16:03:50.749Z,7.60
2022-10-29T16:08:58.463Z,12.60
2022-10-29T16:14:01.868Z,13.00
2022-10-29T16:19:05.073Z,9.70
2022-10-29T16:24:27.295Z,8.50
2022-10-29T16:29:30.430Z,7.80
2022-10-29T16:34:33.606Z,7.60
2022-10-29T16:39:36.678Z,9.10
2022-10-29T16:44:41.480Z,7.50
2022-10-29T16:49:44.912Z,6.90
2022-10-29T16:54:48.073Z,8.70
2022-10-29T16:59:51.192Z,7.80
2022-10-29T17:04:54.331Z,8.80
2022-10-29T17:09:57.483Z,8.60
2022-10-29T17:15:00.811Z,7.80
2022-10-29T17:20:05.644Z,9.30
2022-10-29T17:25:10.007Z,6.20
2022-10-29T17:30:13.373Z,8.30
2022-10-29T17:35:34.044Z,7.90
2022-10-29T17:40:38.178Z,8.00
2022-10-29T17:45:43.878Z,12.60
2022-10-29T17:50:58.341Z,11.60
2022-10-29T17:56:19.133Z,11.30
2022-10-29T18:01:40.236Z,8.30
2022-10-29T18:06:44.079Z,11.90
2022-10-29T18:11:49.514Z,10.80
2022-10-29T18:16:52.666Z,12.30
2022-10-29T18:21:55.756Z,13.80
2022-10-29T18:26:58.963Z,16.20
2022-10-29T18:32:02.141Z,16.50
2022-10-29T18:37:25.248Z,10.10
2022-10-29T18:42:30.661Z,10.70
2022-10-29T18:47:33.731Z,11.20
2022-10-29T18:52:36.914Z,13.10
2022-10-29T18:57:40.117Z,9.80
2022-10-29T19:02:43.418Z,11.80
2022-10-29T19:07:46.926Z,9.80
2022-10-29T19:12:50.123Z,16.00
2022-10-29T19:17:53.293Z,14.50
2022-10-29T19:22:57.654Z,11.70
2022-10-29T19:28:18.641Z,13.30
2022-10-29T19:33:21.766Z,10.10
2022-10-29T19:38:25.476Z,6.70
2022-10-29T19:43:47.529Z,9.00
2022-10-29T19:48:52.476Z,7.70
2022-10-29T19:53:58.199Z,9.10
2022-10-29T19:59:01.374Z,8.70
2022-10-29T20:04:04.847Z,11.10
2022-10-29T20:09:08.483Z,9.10
2022-10-29T20:14:11.821Z,11.10
2022-10-29T20:19:15.251Z,7.40
2022-10-29T20:24:18.281Z,8.70
2022-10-29T20:29:21.781Z,7.90
2022-10-29T20:34:25.131Z,7.60
2022-10-29T20:39:32.388Z,5.70
2022-10-29T20:44:54.428Z,8.20
2022-10-29T20:49:58.369Z,8.10
2022-10-29T20:55:02.714Z,10.10
2022-10-29T21:00:31.169Z,7.10
2022-10-29T21:05:51.869Z,5.70
2022-10-29T21:11:00.010Z,5.30
2022-10-29T21:16:24.396Z,7.70
2022-10-29T21:21:45.115Z,7.40
2022-10-29T21:26:48.285Z,8.20
2022-10-29T21:32:12.761Z,9.10
2022-10-29T21:37:23.768Z,6.00
2022-10-29T21:42:27.553Z,8.50
2022-10-29T21:47:49.507Z,7.40
2022-10-29T21:53:00.575Z,7.90
2022-10-29T21:58:21.760Z,6.10
2022-10-29T22:03:24.868Z,9.20
2022-10-29T22:08:28.072Z,6.70
2022-10-29T22:13:32.818Z,6.60
2022-10-29T22:18:36.744Z,8.00
2022-10-29T22:23:47.773Z,4.80
2022-10-29T22:28:51.156Z,6.90
2022-10-29T22:34:12.284Z,6.40
2022-10-29T22:39:15.827Z,9.10
2022-10-29T22:44:19.267Z,6.30
2022-10-29T22:49:22.430Z,7.60
2022-10-29T22:54:25.502Z,8.30
2022-10-29T22:59:28.647Z,12.30
2022-10-29T23:04:32.014Z,9.20
2022-10-29T23:09:52.964Z,6.80
2022-10-29T23:14:56.622Z,7.00
2022-10-29T23:19:59.767Z,9.10
2022-10-29T23:25:02.926Z,7.20
2022-10-29T23:30:06.575Z,7.20
2022-10-29T23:35:09.737Z,5.90
2022-10-29T23:40:15.675Z,6.10
2022-10-29T23:45:37.214Z,10.90
2022-10-29T23:50:40.680Z,8.20
2022-10-29T23:55:44.837Z,7.10
